Airfield :
LOGIN :

Register | Disclaimer

   EN    FR    IT 

 










Legend :    VFR   Marginal VFR   IFR   Intensive IFR   Very Intensive IFR
Visi :
Ceiling :
>= 8 km
>= 3000ft
5 to 8 km
1000 to 3000 ft
1500m to 5 km
500 to 1000 ft
800 to 1500m
200 to 500 ft
< 800m
< 200 ft
Symbols :   Thunderstorms  Fog  Heavy snow  Heavy precipitations  Wind > 20 kt
SIGMETs :     Misc.  Thunderstorms  Icing  Turbulence  Mountain Waves  Volcanic Ashes







- Airport Elevation : 160 ft
- IATA code : LRT
- Download approach charts


LFRH - Lorient Lann Bihoue

CURRENT METAR :
  • 150030Z AUTO 28010KT 9999 FEW038 07/03 Q1002 TEMPO VRB15G30KT 3000 SHRA BKN012CB BKN020

EXPIRED METARs :
  • 150000Z AUTO 29009KT 260V320 9999 FEW027 06/04 Q1001 TEMPO VRB15G30KT 3000 SHRA BKN012CB BKN020
  • 142330Z AUTO 27006KT 9999 SCT042 BKN048 05/03 Q1001 TEMPO VRB15G30KT 3000 SHRA BKN012CB BKN020
  • 142300Z AUTO 29008KT 9999 SCT029 BKN037 06/04 Q1001 TEMPO VRB20G35KT 3000 SHRA BKN012CB BKN020
  • 142230Z AUTO 29015KT 260V320 9999 -RA FEW030 BKN045 BKN068 07/04 Q1001 TEMPO VRB20G35KT 3000 SHRA BKN012CB BKN020
  • 142200Z AUTO 29012KT 9999 FEW032 SCT060 07/04 Q1001 TEMPO VRB20G35KT 3000 SHRA BKN012CB BKN020

TAF TAF LFRH
Valid from the 15 at 00:00 until the 16 at 00:00 UTC


142300Z 1500/1524 27013KT 9999 SCT025
TEMPO 1500/1513 VRB15G30KT 3000 SHRA BKN012CB BKN020
BECMG 1506/1508 31015G25KT
BECMG 1516/1518 30008KT CAVOK
No reported NOTAMs for that airfield.
1 SIGMET reported for the Brest FIR (LFRR) :
 
Severe turbulence
LFRR SIGMET 18 VALID 142300/150300 LFPW
LFRR BREST FIR/UIR SEV TURB FCST WI N4630 W00100 - N4630 W00130 - N4330 W00145 - N4500 W00800 - N4900 W00800 - N5000 W00200 - N5000 W00115 - N4830 W00115 - N4815 W00345 - N4630 W00100 SFC/FL050 STNR WKN=



MET'MAP, your aeronautical weather chart ! - Copyright ORBIFLY December 2007 - Disclaimer

ORBIFLY MET'MAP TEAM :

Programming & Development : Alexandra Zaïnal
Concept & Development : Baudouin d'Aumeries
Co-Development & Prog : Marc-Olivier Méhu
Technical & hardware support : Manuel Goepfert

Contact : metmap@orbifly.com




SOURCES & CREDITS :

   NOAA